Time;durP1;ratioP1;P1;durP2;ratioP2;P2;SDS_P1;SDS_P2;PMS_P1;PMS_P2;Temp;Humidity;BMP_temperature;BMP_pressure;BME280_temperature;BME280_humidity;BME280_pressure;Samples;Min_cycle;Max_cycle;Signal;HPM_P1;HPM_P2
2022/05/07 00:00:41;;;;;;;2.23;2.03;;;21.50;49.40;;;;;;5056330;28;20183;-89
2022/05/07 00:03:07;;;;;;;2.67;2.10;;;21.50;49.30;;;;;;5055870;28;20203;-89
2022/05/07 00:05:33;;;;;;;2.40;2.20;;;21.50;49.40;;;;;;5056611;28;20504;-89
2022/05/07 00:07:59;;;;;;;3.80;2.43;;;21.50;49.30;;;;;;5057426;28;20443;-90
2022/05/07 00:10:25;;;;;;;2.90;2.50;;;21.50;49.40;;;;;;5073557;28;20164;-90
2022/05/07 00:12:50;;;;;;;2.30;2.17;;;21.50;49.40;;;;;;5073648;28;20285;-90
2022/05/07 00:15:16;;;;;;;2.23;2.03;;;21.50;49.40;;;;;;5056233;28;20174;-90
2022/05/07 00:20:27;;;;;;;2.30;2.07;;;21.40;49.40;;;;;;5074147;28;20235;-90
2022/05/07 00:22:56;;;;;;;2.10;1.90;;;21.40;49.40;;;;;;5056932;28;20179;-90
2022/05/07 00:25:23;;;;;;;2.30;2.10;;;21.40;49.40;;;;;;5056527;28;20203;-90
2022/05/07 00:27:48;;;;;;;2.37;2.10;;;21.40;49.40;;;;;;5055944;28;20175;-90
2022/05/07 00:30:15;;;;;;;2.07;1.87;;;21.40;49.40;;;;;;5056845;28;20183;-90
2022/05/07 00:32:40;;;;;;;2.17;1.97;;;21.30;49.40;;;;;;5057172;28;20166;-90
2022/05/07 00:35:07;;;;;;;2.50;2.30;;;21.40;49.40;;;;;;5056409;28;20235;-90
2022/05/07 00:37:32;;;;;;;2.47;2.20;;;21.30;49.40;;;;;;5057096;28;20177;-90
2022/05/07 00:39:58;;;;;;;2.30;2.10;;;21.30;49.40;;;;;;5056812;28;20184;-90
2022/05/07 00:42:24;;;;;;;2.43;2.23;;;21.30;49.40;;;;;;5057167;28;20204;-90
2022/05/07 00:44:50;;;;;;;2.13;1.93;;;21.30;49.40;;;;;;5055787;28;20550;-90
2022/05/07 00:47:25;;;;;;;2.57;2.07;;;21.30;49.40;;;;;;5054104;28;20179;-90
2022/05/07 00:49:56;;;;;;;2.47;2.23;;;21.30;49.40;;;;;;5071800;28;20577;-90
2022/05/07 00:52:22;;;;;;;2.17;1.97;;;21.30;49.40;;;;;;5054881;28;20270;-90
2022/05/07 00:54:48;;;;;;;2.40;2.20;;;21.30;49.40;;;;;;5055462;28;20175;-91
2022/05/07 00:57:15;;;;;;;2.70;2.20;;;21.20;49.40;;;;;;5056354;28;20311;-90
2022/05/07 00:59:42;;;;;;;2.30;2.10;;;21.20;49.40;;;;;;5056122;28;20177;-90
2022/05/07 01:02:08;;;;;;;2.37;2.00;;;21.20;49.40;;;;;;5058446;28;20182;-91
2022/05/07 01:04:35;;;;;;;2.67;2.07;;;21.20;49.40;;;;;;5059582;28;20217;-90
2022/05/07 01:07:02;;;;;;;3.00;2.00;;;21.20;49.40;;;;;;5078112;28;20198;-90
2022/05/07 01:09:29;;;;;;;2.43;2.17;;;21.20;49.40;;;;;;5060487;28;20282;-90
2022/05/07 01:11:56;;;;;;;2.20;2.00;;;21.20;49.40;;;;;;5060755;28;20190;-90
2022/05/07 01:14:24;;;;;;;2.43;2.00;;;21.20;49.40;;;;;;5060449;28;20312;-90
2022/05/07 01:16:50;;;;;;;2.67;2.03;;;21.10;49.40;;;;;;5060274;28;20203;-91
2022/05/07 01:19:16;;;;;;;2.30;2.00;;;21.10;49.40;;;;;;5060347;28;20466;-91
2022/05/07 01:21:42;;;;;;;2.17;2.07;;;21.10;49.40;;;;;;5078053;28;20457;-91
2022/05/07 01:24:08;;;;;;;2.03;1.93;;;21.10;49.40;;;;;;5060521;28;20180;-92
2022/05/07 01:26:33;;;;;;;2.33;1.83;;;21.10;49.40;;;;;;5077148;28;20171;-91
2022/05/07 01:29:01;;;;;;;2.80;2.00;;;21.10;49.40;;;;;;5059113;28;20209;-91
2022/05/07 01:31:27;;;;;;;2.27;2.07;;;21.10;49.40;;;;;;5059846;28;20206;-90
2022/05/07 01:33:53;;;;;;;2.23;1.93;;;21.00;49.40;;;;;;5059860;28;20251;-92
2022/05/07 01:36:19;;;;;;;1.80;1.70;;;21.00;49.40;;;;;;5059829;28;20553;-92
2022/05/07 01:38:45;;;;;;;2.17;1.97;;;21.00;49.40;;;;;;5077496;28;20178;-92
2022/05/07 01:41:11;;;;;;;2.10;1.90;;;21.00;49.40;;;;;;5059882;28;20182;-91
2022/05/07 01:43:38;;;;;;;2.20;1.93;;;21.00;49.40;;;;;;5060059;28;20181;-91
2022/05/07 01:48:09;;;;;;;2.47;1.90;;;21.00;49.40;;;;;;5060141;28;20266;-91
2022/05/07 01:48:49;;;;;;;2.13;1.93;;;21.00;49.40;;;;;;5075893;28;20264;-91
2022/05/07 01:51:15;;;;;;;2.10;1.90;;;21.00;49.40;;;;;;5060828;28;20294;-89
2022/05/07 01:53:41;;;;;;;2.20;2.00;;;21.00;49.40;;;;;;5060126;28;20179;-90
2022/05/07 01:56:06;;;;;;;2.20;2.00;;;20.90;49.40;;;;;;5059463;28;20173;-89
2022/05/07 01:58:32;;;;;;;2.07;1.87;;;20.90;49.40;;;;;;5058998;28;20508;-89
2022/05/07 02:00:58;;;;;;;2.93;2.10;;;20.90;49.40;;;;;;5059465;28;20609;-89
2022/05/07 02:03:24;;;;;;;2.10;1.90;;;20.90;49.40;;;;;;5059094;28;20184;-89
2022/05/07 02:05:50;;;;;;;2.10;1.93;;;20.90;49.40;;;;;;5059140;28;20489;-89
2022/05/07 02:08:16;;;;;;;2.07;1.97;;;20.90;49.40;;;;;;5059719;28;20181;-89
2022/05/07 02:10:42;;;;;;;2.20;2.00;;;20.90;49.40;;;;;;5059541;28;20596;-89
2022/05/07 02:13:07;;;;;;;2.20;2.00;;;20.90;49.40;;;;;;5059325;28;20185;-90
2022/05/07 02:15:33;;;;;;;2.23;2.00;;;20.80;49.30;;;;;;5059634;28;20274;-89
2022/05/07 02:17:59;;;;;;;2.20;2.00;;;20.80;49.30;;;;;;5059590;28;20206;-89
2022/05/07 02:20:25;;;;;;;2.30;2.07;;;20.80;49.40;;;;;;5060517;28;20504;-89
2022/05/07 02:22:55;;;;;;;2.10;1.90;;;20.80;49.40;;;;;;5060816;28;20193;-90
2022/05/07 02:25:22;;;;;;;2.10;1.90;;;20.80;49.40;;;;;;5059990;28;20210;-90
2022/05/07 02:27:48;;;;;;;1.90;1.80;;;20.80;49.30;;;;;;5059897;28;20185;-90
2022/05/07 02:30:14;;;;;;;2.07;1.90;;;20.80;49.40;;;;;;5077269;28;20164;-90
2022/05/07 02:32:40;;;;;;;2.10;1.90;;;20.80;49.40;;;;;;5077560;28;20174;-90
2022/05/07 02:35:06;;;;;;;2.03;1.80;;;20.70;49.30;;;;;;5059633;28;20593;-90
2022/05/07 02:37:31;;;;;;;2.10;1.90;;;20.70;49.40;;;;;;5059566;28;20177;-90
2022/05/07 02:39:57;;;;;;;2.23;2.03;;;20.70;49.40;;;;;;5059140;28;20182;-90
2022/05/07 02:42:39;;;;;;;2.13;2.00;;;20.70;49.40;;;;;;5059401;28;20184;-90
2022/05/07 02:45:07;;;;;;;2.10;1.90;;;20.70;49.30;;;;;;5076460;28;20199;-90
2022/05/07 02:47:37;;;;;;;2.10;1.90;;;20.70;49.30;;;;;;5059671;28;20176;-90
2022/05/07 02:50:04;;;;;;;2.10;1.90;;;20.70;49.40;;;;;;5059772;28;20778;-90
2022/05/07 02:52:34;;;;;;;2.10;1.97;;;20.70;49.40;;;;;;5058315;28;20225;-90
2022/05/07 02:55:05;;;;;;;2.17;1.90;;;20.70;49.40;;;;;;5076727;28;20182;-90
2022/05/07 02:57:31;;;;;;;2.20;2.00;;;20.70;49.40;;;;;;5059761;28;20179;-89
2022/05/07 02:59:57;;;;;;;2.60;1.77;;;20.70;49.40;;;;;;5059781;28;20190;-89
2022/05/07 03:02:23;;;;;;;2.50;2.00;;;20.60;49.30;;;;;;5059181;28;20176;-89
2022/05/07 03:04:50;;;;;;;2.10;1.90;;;20.60;49.30;;;;;;5059014;28;20213;-89
2022/05/07 03:07:16;;;;;;;2.20;2.00;;;20.60;49.30;;;;;;5058878;28;20539;-89
2022/05/07 03:09:42;;;;;;;3.00;2.00;;;20.60;49.30;;;;;;5059090;28;20269;-89
2022/05/07 03:12:11;;;;;;;2.20;2.00;;;20.60;49.30;;;;;;5058212;28;20183;-89
2022/05/07 03:14:37;;;;;;;1.80;1.70;;;20.60;49.30;;;;;;5058822;28;20555;-89
2022/05/07 03:17:04;;;;;;;2.40;1.90;;;20.50;49.30;;;;;;5058537;28;20266;-89
2022/05/07 03:19:29;;;;;;;1.77;1.67;;;20.50;49.30;;;;;;5057850;28;20233;-89
2022/05/07 03:21:55;;;;;;;2.20;2.00;;;20.50;49.70;;;;;;5058173;28;20274;-89
2022/05/07 03:24:22;;;;;;;2.03;1.93;;;20.50;49.30;;;;;;5057973;28;20177;-89
2022/05/07 03:26:48;;;;;;;2.13;1.90;;;20.50;49.30;;;;;;5057996;28;20183;-89
2022/05/07 03:29:13;;;;;;;1.90;1.70;;;20.50;49.30;;;;;;5057811;28;20170;-89
2022/05/07 03:31:39;;;;;;;2.27;1.70;;;20.50;49.30;;;;;;5058553;28;20199;-89
2022/05/07 03:34:06;;;;;;;1.83;1.67;;;20.50;49.20;;;;;;5057930;28;20174;-89
2022/05/07 03:36:32;;;;;;;1.90;1.80;;;20.50;49.20;;;;;;5075201;28;20414;-89
2022/05/07 03:38:58;;;;;;;1.70;1.60;;;20.50;49.20;;;;;;5059316;28;20620;-89
2022/05/07 03:41:24;;;;;;;2.00;1.90;;;20.50;49.30;;;;;;5058684;28;20181;-89
2022/05/07 03:43:50;;;;;;;1.87;1.70;;;20.40;49.20;;;;;;5074503;28;20175;-89
2022/05/07 03:46:16;;;;;;;2.10;1.90;;;20.50;49.30;;;;;;5057675;28;20294;-89
2022/05/07 03:48:41;;;;;;;2.20;2.00;;;20.50;49.30;;;;;;5058625;28;20172;-89
2022/05/07 03:51:07;;;;;;;2.10;1.90;;;20.40;49.20;;;;;;5057588;28;20236;-89
2022/05/07 03:53:35;;;;;;;2.03;1.93;;;20.40;49.20;;;;;;5057301;28;20200;-89
2022/05/07 03:56:06;;;;;;;3.70;2.00;;;20.40;49.20;;;;;;5058627;28;20469;-89
2022/05/07 03:58:33;;;;;;;2.20;2.00;;;20.40;49.20;;;;;;5058179;28;20193;-89
2022/05/07 04:00:59;;;;;;;1.90;1.70;;;20.40;49.20;;;;;;5058587;28;20217;-89
2022/05/07 04:03:26;;;;;;;3.10;2.00;;;20.40;49.20;;;;;;5074534;28;20174;-90
2022/05/07 04:05:53;;;;;;;1.90;1.80;;;20.40;49.20;;;;;;5057531;28;20204;-90
2022/05/07 04:08:19;;;;;;;1.70;1.60;;;20.40;49.20;;;;;;5057754;28;20559;-89
2022/05/07 04:10:45;;;;;;;1.77;1.67;;;20.30;49.10;;;;;;5057077;28;20188;-90
2022/05/07 04:13:15;;;;;;;2.57;1.80;;;20.30;49.10;;;;;;5057607;28;20526;-90
2022/05/07 04:15:43;;;;;;;2.07;1.80;;;20.30;49.10;;;;;;5057415;28;20172;-90
2022/05/07 04:18:09;;;;;;;1.80;1.70;;;20.30;49.10;;;;;;5057128;28;20172;-90
2022/05/07 04:20:36;;;;;;;2.13;1.70;;;20.30;49.10;;;;;;5057378;28;20186;-90
2022/05/07 04:23:02;;;;;;;2.00;1.80;;;20.30;49.10;;;;;;5057964;28;20172;-90
2022/05/07 04:25:28;;;;;;;2.07;1.97;;;20.30;49.10;;;;;;5057219;28;20231;-90
2022/05/07 04:27:54;;;;;;;2.00;1.80;;;20.30;49.10;;;;;;5057542;28;20209;-90
2022/05/07 04:30:20;;;;;;;1.80;1.70;;;20.30;49.10;;;;;;5056300;28;20302;-90
2022/05/07 04:32:46;;;;;;;1.77;1.67;;;20.30;49.10;;;;;;5057014;28;20213;-90
2022/05/07 04:35:12;;;;;;;1.70;1.60;;;20.30;49.10;;;;;;5056795;28;20228;-90
2022/05/07 04:37:38;;;;;;;2.10;1.90;;;20.30;49.00;;;;;;5061492;28;20175;-89
2022/05/07 04:40:04;;;;;;;1.93;1.83;;;20.40;49.00;;;;;;5061314;28;20263;-89
2022/05/07 04:42:30;;;;;;;2.00;1.87;;;20.40;49.00;;;;;;5061075;28;20179;-89
2022/05/07 04:44:56;;;;;;;1.70;1.60;;;20.40;48.90;;;;;;5060733;28;20201;-89
2022/05/07 04:47:22;;;;;;;2.10;1.90;;;20.40;48.90;;;;;;5060962;28;20239;-89
2022/05/07 04:49:47;;;;;;;2.00;1.80;;;20.40;48.80;;;;;;5078702;28;20178;-89
2022/05/07 04:52:13;;;;;;;2.63;1.70;;;20.40;48.80;;;;;;5060988;28;20261;-89
2022/05/07 04:54:39;;;;;;;1.90;1.80;;;20.40;48.80;;;;;;5061204;28;20173;-89
2022/05/07 04:57:05;;;;;;;1.77;1.67;;;20.40;48.80;;;;;;5060986;28;20205;-89
2022/05/07 04:59:30;;;;;;;1.87;1.77;;;20.40;48.80;;;;;;5060099;28;20582;-89
2022/05/07 05:01:56;;;;;;;1.90;1.80;;;20.40;48.70;;;;;;5060625;28;20179;-89
2022/05/07 05:04:22;;;;;;;1.73;1.63;;;20.50;48.70;;;;;;5077999;28;20715;-89
2022/05/07 05:06:48;;;;;;;2.10;1.90;;;20.50;48.70;;;;;;5060243;28;20176;-89
2022/05/07 05:09:14;;;;;;;1.93;1.73;;;20.50;48.70;;;;;;5061181;28;20204;-90
2022/05/07 05:11:40;;;;;;;1.90;1.80;;;20.50;48.60;;;;;;5060494;28;20197;-90
2022/05/07 05:15:01;;;;;;;1.60;1.50;;;20.50;48.60;;;;;;5059776;28;20268;-90
2022/05/07 05:16:52;;;;;;;1.83;1.73;;;20.50;48.60;;;;;;5076598;28;20261;-90
2022/05/07 05:19:18;;;;;;;2.27;1.80;;;20.50;48.50;;;;;;5060324;28;20234;-90
2022/05/07 05:21:44;;;;;;;1.60;1.50;;;20.50;48.50;;;;;;5060437;28;20265;-90
2022/05/07 05:24:10;;;;;;;2.60;1.80;;;20.50;48.50;;;;;;5059722;28;20485;-90
2022/05/07 05:26:35;;;;;;;1.90;1.80;;;20.50;48.50;;;;;;5060213;28;20511;-90
2022/05/07 05:29:01;;;;;;;1.80;1.70;;;20.50;48.40;;;;;;5059634;28;20623;-90
2022/05/07 05:31:30;;;;;;;1.63;1.50;;;20.50;48.40;;;;;;5059462;28;20232;-90
2022/05/07 05:33:57;;;;;;;1.60;1.50;;;20.50;48.40;;;;;;5059590;28;20189;-89
2022/05/07 05:36:24;;;;;;;2.10;1.90;;;20.50;48.40;;;;;;5077251;28;20171;-90
2022/05/07 05:38:50;;;;;;;1.63;1.53;;;20.60;48.30;;;;;;5059611;28;20270;-90
2022/05/07 05:41:16;;;;;;;1.67;1.57;;;20.60;48.30;;;;;;5059642;28;20540;-90
2022/05/07 05:43:44;;;;;;;1.80;1.70;;;20.60;48.30;;;;;;5059593;28;20171;-90
2022/05/07 05:46:10;;;;;;;1.97;1.77;;;20.70;48.30;;;;;;5059268;28;20205;-90
2022/05/07 05:48:36;;;;;;;1.67;1.57;;;20.70;48.20;;;;;;5076455;28;20178;-90
2022/05/07 05:51:01;;;;;;;1.90;1.80;;;20.70;48.20;;;;;;5058886;28;20452;-90
2022/05/07 05:53:27;;;;;;;1.80;1.70;;;20.70;48.10;;;;;;5059279;28;20500;-90
2022/05/07 05:55:54;;;;;;;1.70;1.60;;;20.70;48.10;;;;;;5059490;28;20245;-90
2022/05/07 05:58:20;;;;;;;1.50;1.40;;;20.70;48.00;;;;;;5059233;28;20244;-90
2022/05/07 06:00:46;;;;;;;1.70;1.60;;;20.70;48.00;;;;;;5058406;28;20188;-91
2022/05/07 06:03:12;;;;;;;2.50;1.70;;;20.80;48.00;;;;;;5059139;28;20180;-90
2022/05/07 06:05:37;;;;;;;1.77;1.67;;;20.80;48.00;;;;;;5058851;28;20211;-90
2022/05/07 06:08:03;;;;;;;1.70;1.60;;;20.80;47.90;;;;;;5058615;28;20321;-90
2022/05/07 06:10:29;;;;;;;1.70;1.60;;;20.80;47.90;;;;;;5058756;28;20558;-90
2022/05/07 06:12:55;;;;;;;2.00;1.70;;;20.90;47.80;;;;;;5058679;28;20187;-90
2022/05/07 06:15:21;;;;;;;1.70;1.60;;;20.90;47.80;;;;;;5058661;28;20180;-91
2022/05/07 06:17:47;;;;;;;2.13;1.70;;;20.90;48.10;;;;;;5058981;28;20236;-91
2022/05/07 06:20:13;;;;;;;1.70;1.60;;;20.90;47.70;;;;;;5059290;28;20164;-90
2022/05/07 06:22:39;;;;;;;1.73;1.63;;;20.90;47.60;;;;;;5058951;28;20178;-91
2022/05/07 06:27:49;;;;;;;1.60;1.50;;;21.10;47.60;;;;;;5074717;28;20578;-91
2022/05/07 06:30:15;;;;;;;1.77;1.67;;;21.10;47.50;;;;;;5058079;28;20168;-91
2022/05/07 06:32:41;;;;;;;1.80;1.70;;;21.10;47.40;;;;;;5058860;28;20175;-91
2022/05/07 06:35:10;;;;;;;1.83;1.67;;;21.20;47.40;;;;;;5057492;28;20183;-91
2022/05/07 06:37:37;;;;;;;1.93;1.70;;;21.20;47.30;;;;;;5057971;28;20182;-90
2022/05/07 06:40:05;;;;;;;1.70;1.60;;;21.20;47.30;;;;;;5057060;28;20174;-90
2022/05/07 06:42:34;;;;;;;1.60;1.50;;;21.20;47.30;;;;;;5057163;28;20168;-91
2022/05/07 06:44:59;;;;;;;1.60;1.50;;;21.20;47.30;;;;;;5056823;28;20239;-90
2022/05/07 06:47:26;;;;;;;1.70;1.60;;;21.20;47.30;;;;;;5057034;28;20567;-90
2022/05/07 06:49:52;;;;;;;1.53;1.43;;;21.30;47.30;;;;;;5057178;28;20286;-92
2022/05/07 06:52:18;;;;;;;1.73;1.63;;;21.40;47.10;;;;;;5057607;28;20178;-92
2022/05/07 06:54:44;;;;;;;1.80;1.70;;;21.50;47.00;;;;;;5056878;28;20174;-91
2022/05/07 06:57:10;;;;;;;1.70;1.60;;;21.60;46.90;;;;;;5055856;28;20649;-91
2022/05/07 06:59:36;;;;;;;1.90;1.80;;;21.60;46.80;;;;;;5055215;28;20188;-92
2022/05/07 07:02:02;;;;;;;1.60;1.50;;;21.70;46.80;;;;;;5056066;28;20182;-92
2022/05/07 07:04:28;;;;;;;1.57;1.47;;;21.70;46.70;;;;;;5057012;28;20191;-92
2022/05/07 07:06:54;;;;;;;2.57;1.70;;;21.80;46.60;;;;;;5073005;28;20174;-91
2022/05/07 07:09:20;;;;;;;1.60;1.50;;;21.90;46.50;;;;;;5055561;28;20203;-92
2022/05/07 07:11:46;;;;;;;1.87;1.70;;;22.00;46.40;;;;;;5055153;28;20191;-92
2022/05/07 07:14:12;;;;;;;1.70;1.60;;;22.00;46.40;;;;;;5055940;28;20233;-91
2022/05/07 07:16:38;;;;;;;1.80;1.70;;;22.10;46.30;;;;;;5055497;28;20180;-92
2022/05/07 07:19:04;;;;;;;1.60;1.50;;;22.20;46.30;;;;;;5056596;28;20616;-92
2022/05/07 07:21:30;;;;;;;1.57;1.47;;;22.10;46.30;;;;;;5055602;28;20492;-90
2022/05/07 07:23:56;;;;;;;1.80;1.70;;;22.10;46.40;;;;;;5055295;28;20179;-89
2022/05/07 07:26:21;;;;;;;2.03;1.70;;;22.00;46.60;;;;;;5054136;28;20269;-90
2022/05/07 07:28:47;;;;;;;3.10;1.90;;;22.00;46.70;;;;;;5054757;28;20178;-89
2022/05/07 07:31:14;;;;;;;2.33;1.67;;;22.00;47.10;;;;;;5053501;28;20179;-90
2022/05/07 07:33:41;;;;;;;4.20;1.90;;;22.10;46.60;;;;;;5054553;28;20432;-90
2022/05/07 07:36:09;;;;;;;2.10;1.90;;;22.30;46.50;;;;;;5053269;28;20244;-90
2022/05/07 07:38:37;;;;;;;2.43;1.80;;;22.50;46.20;;;;;;5052560;28;20459;-90
2022/05/07 07:41:03;;;;;;;2.17;1.97;;;22.80;46.20;;;;;;5054012;28;20183;-90
2022/05/07 07:43:30;;;;;;;2.03;1.63;;;22.80;45.90;;;;;;5054162;28;20550;-90
2022/05/07 07:48:41;;;;;;;2.20;1.80;;;22.80;46.10;;;;;;5071078;28;20171;-89
2022/05/07 07:51:07;;;;;;;2.07;1.90;;;22.90;45.90;;;;;;5053794;28;20578;-89
2022/05/07 07:53:34;;;;;;;2.53;1.97;;;23.00;45.80;;;;;;5053445;28;20204;-89
2022/05/07 07:56:01;;;;;;;2.20;2.00;;;23.20;45.80;;;;;;5054506;28;20575;-90
2022/05/07 07:58:27;;;;;;;2.30;1.93;;;23.30;45.70;;;;;;5053967;28;20179;-90
2022/05/07 08:00:53;;;;;;;2.40;2.20;;;23.40;45.60;;;;;;5052709;28;20240;-90
2022/05/07 08:03:20;;;;;;;2.63;2.20;;;23.50;45.50;;;;;;5052514;28;20176;-91
2022/05/07 08:05:51;;;;;;;2.60;2.00;;;23.70;45.50;;;;;;5052616;28;20221;-90
2022/05/07 08:13:49;;;;;;;2.30;2.07;;;23.90;45.20;;;;;;5071993;28;20206;-90
2022/05/07 08:16:19;;;;;;;3.37;2.17;;;24.10;45.10;;;;;;5052385;28;20179;-90
2022/05/07 08:18:46;;;;;;;4.50;2.20;;;24.20;45.10;;;;;;5052956;28;20179;-90
2022/05/07 08:21:12;;;;;;;2.90;2.30;;;24.30;45.00;;;;;;5052718;28;20237;-90
2022/05/07 08:23:39;;;;;;;3.25;2.50;;;24.40;45.00;;;;;;5052290;28;20558;-90
2022/05/07 08:26:06;;;;;;;2.20;2.00;;;24.40;44.90;;;;;;5052247;28;20229;-91
2022/05/07 08:28:33;;;;;;;3.30;2.50;;;24.50;44.80;;;;;;5053371;28;20175;-92
2022/05/07 08:30:59;;;;;;;4.10;2.20;;;24.50;44.80;;;;;;5052646;28;20178;-92
2022/05/07 08:33:26;;;;;;;3.67;2.47;;;24.60;44.70;;;;;;5052942;28;20202;-92
2022/05/07 08:35:52;;;;;;;2.67;2.45;;;24.60;44.70;;;;;;5052585;28;20787;-92
2022/05/07 08:38:18;;;;;;;4.10;2.58;;;24.60;44.70;;;;;;5052421;28;20207;-92
2022/05/07 08:40:44;;;;;;;2.70;2.33;;;24.70;44.70;;;;;;5051772;28;20174;-92
2022/05/07 08:43:09;;;;;;;2.53;2.33;;;24.80;44.70;;;;;;5053255;28;20314;-92
2022/05/07 08:45:36;;;;;;;5.15;2.20;;;24.90;44.60;;;;;;5052066;28;20540;-92
2022/05/07 08:48:02;;;;;;;3.17;2.42;;;24.90;44.50;;;;;;5053355;28;20575;-92
2022/05/07 08:50:28;;;;;;;3.00;2.70;;;25.00;44.50;;;;;;5051857;28;20180;-92
2022/05/07 08:52:54;;;;;;;2.55;2.35;;;25.10;44.40;;;;;;5051216;28;20676;-92
2022/05/07 08:55:21;;;;;;;4.72;2.60;;;25.10;44.30;;;;;;5050636;28;20525;-93
2022/05/07 08:57:50;;;;;;;3.38;2.58;;;25.10;44.30;;;;;;5053169;28;20578;-92
2022/05/07 09:00:17;;;;;;;4.55;2.65;;;25.20;44.40;;;;;;5051420;28;20215;-92
2022/05/07 09:02:44;;;;;;;5.75;2.55;;;25.20;44.30;;;;;;5052318;28;20175;-92
2022/05/07 09:05:13;;;;;;;3.13;2.45;;;25.20;44.30;;;;;;5051885;28;20219;-92
2022/05/07 09:07:41;;;;;;;4.40;2.70;;;25.20;44.40;;;;;;5050825;28;20192;-92
2022/05/07 09:10:14;;;;;;;2.97;2.60;;;25.20;44.40;;;;;;5068487;28;20167;-92
2022/05/07 09:12:40;;;;;;;4.45;2.47;;;25.30;44.40;;;;;;5051594;28;20230;-92
2022/05/07 09:15:08;;;;;;;2.60;2.40;;;25.30;44.30;;;;;;5052307;28;20172;-92
2022/05/07 09:17:35;;;;;;;5.65;2.55;;;25.40;44.40;;;;;;5051852;28;20175;-92
2022/05/07 09:20:25;;;;;;;4.70;2.92;;;25.40;44.30;;;;;;5051932;28;20211;-92
2022/05/07 09:22:54;;;;;;;4.57;2.88;;;25.30;44.40;;;;;;5053486;28;20207;-92
2022/05/07 09:25:25;;;;;;;4.60;2.58;;;25.30;44.50;;;;;;5054762;28;20475;-92
2022/05/07 09:27:54;;;;;;;4.80;2.92;;;25.20;44.60;;;;;;5053912;28;20191;-92
2022/05/07 09:30:27;;;;;;;4.53;2.88;;;25.10;44.70;;;;;;5053682;28;20241;-91
2022/05/07 09:32:55;;;;;;;4.28;2.83;;;24.90;44.90;;;;;;5054425;28;20574;-92
2022/05/07 09:38:13;;;;;;;2.83;2.50;;;24.70;45.20;;;;;;5072248;28;20174;-91
2022/05/07 09:40:41;;;;;;;5.53;2.95;;;24.50;45.50;;;;;;5053353;28;20186;-92
2022/05/07 09:43:12;;;;;;;3.80;2.80;;;24.40;45.60;;;;;;5052671;28;20176;-92
2022/05/07 09:45:39;;;;;;;4.00;2.92;;;24.40;45.80;;;;;;5053491;28;20231;-92
2022/05/07 09:48:07;;;;;;;3.70;2.50;;;24.30;45.90;;;;;;5053836;28;20176;-93
2022/05/07 09:58:48;;;;;;;4.07;3.00;;;24.30;46.20;;;;;;5069583;28;20252;-92
2022/05/07 10:01:47;;;;;;;3.70;2.75;;;24.30;46.30;;;;;;5052380;28;20510;-92
2022/05/07 10:04:23;;;;;;;3.47;2.75;;;24.20;46.30;;;;;;5053454;28;20186;-92
2022/05/07 10:07:06;;;;;;;4.45;2.72;;;24.30;46.40;;;;;;5053140;28;20182;-92
2022/05/07 10:09:32;;;;;;;4.55;2.80;;;24.30;46.40;;;;;;5053470;28;20179;-90
2022/05/07 10:11:58;;;;;;;5.55;2.60;;;24.30;46.40;;;;;;5051729;28;20191;-90
2022/05/07 10:14:26;;;;;;;3.47;2.67;;;24.30;46.50;;;;;;5052293;28;20194;-89
2022/05/07 10:17:11;;;;;;;4.40;3.08;;;24.30;46.50;;;;;;5051902;28;20179;-89
2022/05/07 10:19:44;;;;;;;3.10;2.80;;;24.40;46.60;;;;;;5051776;28;20191;-90
2022/05/07 10:22:17;;;;;;;4.35;2.97;;;24.40;46.60;;;;;;5052233;28;20208;-90
2022/05/07 10:24:45;;;;;;;3.58;2.83;;;24.40;47.00;;;;;;5052683;28;20209;-90
2022/05/07 10:27:30;;;;;;;3.15;2.85;;;24.40;46.60;;;;;;5051240;28;20467;-90
2022/05/07 10:30:16;;;;;;;3.78;2.75;;;24.50;46.60;;;;;;5051616;28;20187;-89
2022/05/07 10:33:02;;;;;;;3.88;3.05;;;24.50;46.70;;;;;;5068927;28;20179;-89
2022/05/07 10:35:52;;;;;;;4.83;3.20;;;24.50;46.60;;;;;;5051976;28;20185;-90
2022/05/07 10:38:26;;;;;;;6.07;2.97;;;24.50;46.70;;;;;;5053268;28;20167;-90
2022/05/07 10:40:53;;;;;;;3.70;3.20;;;24.50;46.70;;;;;;5050534;28;20561;-90
2022/05/07 10:43:34;;;;;;;3.07;2.77;;;24.60;46.70;;;;;;5052349;28;20176;-91
2022/05/07 10:46:04;;;;;;;3.53;2.67;;;24.60;46.80;;;;;;5052847;28;20563;-91
2022/05/07 10:48:42;;;;;;;3.40;2.87;;;24.60;46.80;;;;;;5051819;28;20168;-91
2022/05/07 10:51:22;;;;;;;4.73;3.13;;;24.60;46.80;;;;;;5051589;28;20167;-91
2022/05/07 10:53:49;;;;;;;3.13;2.87;;;24.60;46.80;;;;;;5050422;28;20198;-91
2022/05/07 10:56:20;;;;;;;4.37;3.23;;;24.70;46.90;;;;;;5034466;28;20207;-91
2022/05/07 10:58:51;;;;;;;3.17;2.87;;;24.70;47.20;;;;;;5050168;28;20262;-91
2022/05/07 11:01:20;;;;;;;3.83;3.03;;;24.70;46.80;;;;;;5050851;28;20195;-92
2022/05/07 11:03:47;;;;;;;4.67;2.80;;;24.70;46.90;;;;;;5051124;28;20217;-92
2022/05/07 11:06:13;;;;;;;4.33;3.20;;;24.70;46.90;;;;;;5049747;28;20210;-91
2022/05/07 11:08:47;;;;;;;3.97;2.60;;;24.80;46.90;;;;;;5051295;28;20539;-92
2022/05/07 11:11:14;;;;;;;3.90;3.00;;;24.80;47.00;;;;;;5067809;28;20167;-92
2022/05/07 11:13:52;;;;;;;4.97;3.40;;;24.80;47.00;;;;;;5051731;28;20349;-91
2022/05/07 11:16:20;;;;;;;2.90;2.60;;;24.80;47.00;;;;;;5051746;28;20168;-92
2022/05/07 11:18:49;;;;;;;3.80;2.90;;;24.80;47.00;;;;;;5050182;28;20178;-92
2022/05/07 11:21:14;;;;;;;3.87;3.07;;;24.80;47.00;;;;;;5050253;28;20175;-92
2022/05/07 11:23:43;;;;;;;3.30;3.00;;;24.80;47.00;;;;;;5048661;28;20182;-91
2022/05/07 11:26:16;;;;;;;3.90;3.07;;;24.80;47.10;;;;;;5068730;28;20199;-91
2022/05/07 11:28:44;;;;;;;2.77;2.57;;;24.90;47.20;;;;;;5050522;28;20519;-92
2022/05/07 11:31:11;;;;;;;3.13;2.83;;;24.90;47.20;;;;;;5067934;28;20439;-92
2022/05/07 11:33:38;;;;;;;3.53;2.90;;;24.90;47.20;;;;;;5050402;28;20175;-92
2022/05/07 11:36:08;;;;;;;2.90;2.60;;;24.90;47.20;;;;;;5069706;28;20171;-90
2022/05/07 11:38:37;;;;;;;3.97;3.10;;;24.90;47.20;;;;;;5050528;28;20286;-90
2022/05/07 11:41:17;;;;;;;3.40;3.10;;;24.90;47.30;;;;;;5050740;28;20207;-91
2022/05/07 11:46:33;;;;;;;3.70;2.97;;;24.90;47.30;;;;;;5068049;28;20268;-90
2022/05/07 11:49:06;;;;;;;3.20;2.90;;;24.90;47.30;;;;;;5050213;28;20244;-91
2022/05/07 11:51:32;;;;;;;4.67;2.93;;;24.90;47.40;;;;;;5050504;28;20176;-91
2022/05/07 11:54:08;;;;;;;3.50;2.93;;;24.90;47.40;;;;;;5049665;28;20220;-90
2022/05/07 11:56:45;;;;;;;3.50;3.00;;;24.90;47.40;;;;;;5050698;28;20415;-91
2022/05/07 11:59:11;;;;;;;4.50;2.77;;;24.90;47.40;;;;;;5050951;28;20179;-90
2022/05/07 12:01:36;;;;;;;5.40;3.30;;;25.00;47.50;;;;;;5049253;28;20458;-90
2022/05/07 12:04:09;;;;;;;4.27;3.10;;;25.00;47.50;;;;;;5048835;28;20631;-91
2022/05/07 12:06:35;;;;;;;3.70;2.70;;;25.00;47.50;;;;;;5051044;28;20710;-91
2022/05/07 12:09:15;;;;;;;3.37;3.07;;;25.00;47.60;;;;;;5050841;28;20179;-90
2022/05/07 12:11:44;;;;;;;4.63;3.37;;;25.00;47.60;;;;;;5050096;28;20368;-91
2022/05/07 12:14:10;;;;;;;3.47;2.80;;;25.00;47.70;;;;;;5049835;28;20646;-91
2022/05/07 12:19:31;;;;;;;3.77;3.37;;;25.00;47.70;;;;;;5065955;28;20589;-91
2022/05/07 12:30:13;;;;;;;5.17;3.03;;;25.10;47.80;;;;;;5067677;28;20617;-90
2022/05/07 12:32:44;;;;;;;4.57;3.30;;;25.10;47.80;;;;;;5051716;28;20178;-91
2022/05/07 12:35:12;;;;;;;3.20;2.90;;;25.10;47.80;;;;;;5049989;28;20451;-90
2022/05/07 12:37:38;;;;;;;3.30;3.00;;;25.20;47.90;;;;;;5051523;28;20187;-90
2022/05/07 12:40:08;;;;;;;3.50;3.20;;;25.20;47.90;;;;;;5067336;28;20477;-91
2022/05/07 12:42:35;;;;;;;5.83;3.33;;;25.20;47.80;;;;;;5051148;28;20171;-92
2022/05/07 12:45:01;;;;;;;3.57;3.27;;;25.20;47.90;;;;;;5068464;28;20298;-92
2022/05/07 12:47:28;;;;;;;3.70;2.97;;;25.20;47.80;;;;;;5051468;28;20435;-92
2022/05/07 12:49:54;;;;;;;4.87;3.40;;;25.20;47.90;;;;;;5051366;28;20176;-92
2022/05/07 12:52:22;;;;;;;3.23;2.93;;;25.20;47.90;;;;;;5050152;28;20233;-93
2022/05/07 12:54:48;;;;;;;4.40;3.20;;;25.20;48.10;;;;;;5049914;28;20182;-92
2022/05/07 12:57:14;;;;;;;4.33;3.30;;;25.20;47.90;;;;;;5052992;28;20462;-92
2022/05/07 12:59:40;;;;;;;4.83;3.20;;;25.20;48.00;;;;;;5054849;28;20473;-92
2022/05/07 13:02:08;;;;;;;3.83;3.20;;;25.20;48.00;;;;;;5054993;28;20175;-93
2022/05/07 13:04:34;;;;;;;4.07;2.97;;;25.20;48.00;;;;;;5053981;28;20168;-93
2022/05/07 13:07:00;;;;;;;3.70;3.10;;;25.20;48.00;;;;;;5053629;28;20447;-93
2022/05/07 13:09:27;;;;;;;3.57;3.07;;;25.20;48.10;;;;;;5054382;28;20236;-92
2022/05/07 13:11:53;;;;;;;4.03;3.10;;;25.20;48.10;;;;;;5054686;28;20184;-92
2022/05/07 13:14:20;;;;;;;3.93;3.10;;;25.20;48.20;;;;;;5053195;28;20171;-92
2022/05/07 13:16:46;;;;;;;4.07;3.50;;;25.20;48.20;;;;;;5053615;28;20183;-92
2022/05/07 13:19:12;;;;;;;6.67;3.60;;;25.20;48.20;;;;;;5053088;28;20171;-92
2022/05/07 13:21:38;;;;;;;3.47;3.07;;;25.10;48.20;;;;;;5052977;28;20286;-92
2022/05/07 13:24:04;;;;;;;3.20;2.90;;;25.10;48.30;;;;;;5052197;28;20459;-92
2022/05/07 13:26:30;;;;;;;4.53;3.00;;;25.10;48.30;;;;;;5051923;28;20494;-91
2022/05/07 13:28:55;;;;;;;7.13;3.40;;;25.10;48.30;;;;;;5072217;28;20168;-91